createdAt,value
2019-01-02T00:00:33.529Z,1000.44
2019-01-02T00:04:03.609Z,1000.04
2019-01-02T00:07:33.771Z,998.8
2019-01-02T00:11:03.825Z,997.99
2019-01-02T00:14:34.093Z,997.08
2019-01-02T00:18:04.454Z,996.34
2019-01-02T00:21:34.641Z,996.18
2019-01-02T00:25:04.866Z,995.87
2019-01-02T00:28:34.898Z,996.23
2019-01-02T00:32:05.209Z,996.29
2019-01-02T00:35:35.650Z,997.12
2019-01-02T00:39:06.711Z,997.46
2019-01-02T00:42:36.742Z,997.58
2019-01-02T00:46:06.736Z,997.5
2019-01-02T00:49:38.015Z,997.61
2019-01-02T00:53:08.016Z,997.61
2019-01-02T00:56:38.467Z,997.8
2019-01-02T01:00:22.781Z,998.81
2019-01-02T01:03:52.909Z,999.45
2019-01-02T01:07:22.995Z,999.03
2019-01-02T01:10:53.136Z,999.22
2019-01-02T01:14:23.283Z,1000.17
2019-01-02T01:17:53.449Z,1000.59
2019-01-02T01:21:23.476Z,1000.22
2019-01-02T01:24:53.867Z,999.36
2019-01-02T01:28:23.890Z,998.17
2019-01-02T01:31:53.958Z,997.23
2019-01-02T01:35:23.979Z,995.42
2019-01-02T01:38:54.340Z,994.2
2019-01-02T01:42:24.392Z,993.92
2019-01-02T01:45:54.523Z,994.26
2019-01-02T01:49:24.525Z,994.09
2019-01-02T01:52:55.565Z,994.05
2019-01-02T01:56:25.596Z,994.04
2019-01-02T01:59:55.578Z,993.89
2019-01-02T02:00:22.050Z,993.83
2019-01-02T02:03:52.000Z,993.76
2019-01-02T02:07:22.140Z,993.46
2019-01-02T02:10:52.193Z,993.26
2019-01-02T02:14:22.542Z,993.35
2019-01-02T02:17:52.553Z,992.95
2019-01-02T02:21:22.765Z,992.88
2019-01-02T02:24:53.135Z,992.61
2019-01-02T02:28:23.227Z,992.72
2019-01-02T02:31:53.359Z,992.82
2019-01-02T02:35:23.441Z,992.73
2019-01-02T02:38:53.890Z,992.92
2019-01-02T02:42:24.292Z,993.43
2019-01-02T02:45:54.433Z,993.58
2019-01-02T02:49:24.865Z,994.13
2019-01-02T02:52:54.918Z,994.9
2019-01-02T02:56:25.945Z,995.46
2019-01-02T02:59:56.366Z,996.18
2019-01-02T03:03:26.467Z,996.55
2019-01-02T03:06:56.899Z,996.53
2019-01-02T03:10:27.220Z,997.02
2019-01-02T03:13:57.591Z,997.23
2019-01-02T03:17:27.942Z,996.64
2019-01-02T03:20:58.374Z,996.26
2019-01-02T03:24:28.585Z,995.52
2019-01-02T03:27:59.016Z,995.63
2019-01-02T03:31:29.357Z,995.87
2019-01-02T03:34:59.727Z,995.97
2019-01-02T03:38:29.890Z,996
2019-01-02T03:41:59.930Z,995.53
2019-01-02T03:45:29.961Z,994.64
2019-01-02T03:49:00.083Z,993.51
2019-01-02T03:52:30.364Z,993.05
2019-01-02T03:56:00.435Z,993.49
2019-01-02T03:59:31.390Z,993.51
2019-01-02T04:00:22.137Z,993.42
2019-01-02T04:03:52.177Z,993.08
2019-01-02T04:07:22.250Z,992.86
2019-01-02T04:10:52.280Z,992.78
2019-01-02T04:14:22.351Z,992.45
2019-01-02T04:17:52.382Z,992.32
2019-01-02T04:21:22.434Z,992.2
2019-01-02T04:24:52.525Z,992.22
2019-01-02T04:28:22.616Z,992.07
2019-01-02T04:31:52.686Z,992.2
2019-01-02T04:35:22.764Z,992.16
2019-01-02T04:38:52.789Z,991.48
2019-01-02T04:42:22.840Z,991.89
2019-01-02T04:45:52.802Z,991.74
2019-01-02T04:49:22.883Z,991.75
2019-01-02T04:52:52.912Z,991.49
2019-01-02T04:56:23.066Z,991.46
2019-01-02T04:59:53.957Z,991.32
2019-01-02T05:03:24.147Z,991.13
2019-01-02T05:06:54.178Z,991.08
2019-01-02T05:10:24.329Z,991.12
2019-01-02T05:13:54.360Z,991.1
2019-01-02T05:17:24.471Z,991.16
2019-01-02T05:20:54.522Z,991.09
2019-01-02T05:24:24.663Z,990.48
2019-01-02T05:27:54.734Z,990.27
2019-01-02T05:31:24.827Z,990.12
2019-01-02T05:34:54.987Z,990.01
2019-01-02T05:38:25.148Z,989.62
2019-01-02T05:41:55.109Z,989.15
2019-01-02T05:45:25.280Z,988.15
2019-01-02T05:48:55.271Z,987.88
2019-01-02T05:52:25.281Z,987.87
2019-01-02T05:55:55.443Z,988.09
2019-01-02T05:59:25.764Z,988.83
2019-01-02T06:00:22.624Z,988.99
2019-01-02T06:03:52.687Z,989.55
2019-01-02T06:07:22.707Z,990.03
2019-01-02T06:10:52.839Z,990.5
2019-01-02T06:14:22.959Z,990.72
2019-01-02T06:17:52.999Z,991.25
2019-01-02T06:21:23.131Z,991.82
2019-01-02T06:24:53.223Z,992.48
2019-01-02T06:28:23.383Z,992.99
2019-01-02T06:31:53.375Z,993.49
2019-01-02T06:35:23.466Z,993.68
2019-01-02T06:38:53.440Z,994.61
2019-01-02T06:42:23.588Z,995.51
2019-01-02T06:45:53.718Z,996.25
2019-01-02T06:49:23.791Z,996.87
2019-01-02T06:52:53.742Z,997.22
2019-01-02T06:56:24.174Z,997.4
2019-01-02T06:59:54.245Z,997.46
2019-01-02T07:03:25.255Z,997.63
2019-01-02T07:06:55.317Z,997.97
2019-01-02T07:10:25.458Z,998.39
2019-01-02T07:13:55.559Z,999.08
2019-01-02T07:17:25.770Z,999.61
2019-01-02T07:20:55.891Z,999.79
2019-01-02T07:24:27.063Z,1000.15
2019-01-02T07:27:57.054Z,1000.26
2019-01-02T07:31:27.165Z,999.99
2019-01-02T07:38:53.488Z,1000.67
2019-01-02T07:43:23.910Z,1001.37
2019-01-02T07:49:30.583Z,1002.43
2019-01-02T07:53:15.003Z,1002.71
2019-01-02T07:57:00.176Z,1002.66
2019-01-02T08:03:26.038Z,1002.16
2019-01-02T08:08:17.228Z,1002.22
2019-01-02T08:12:30.880Z,1001.92
2019-01-02T08:17:57.474Z,1001.51
2019-01-02T08:28:20.535Z,1003.08
2019-01-02T08:32:35.476Z,1003.46
2019-01-02T08:41:26.159Z,1004.56
2019-01-02T08:45:15.471Z,1004.72
2019-01-02T08:59:33.666Z,1004.96
2019-01-02T09:03:52.307Z,1005.35
2019-01-02T09:11:54.491Z,1005.34
2019-01-02T09:15:56.622Z,1005.4
2019-01-02T09:25:21.774Z,1006.09
2019-01-02T09:29:17.195Z,1006.07
2019-01-02T09:34:19.468Z,1005.47
2019-01-02T09:38:07.479Z,1006.72
2019-01-02T09:41:51.461Z,1007.33
2019-01-02T09:55:17.895Z,1007.5
2019-01-02T10:00:50.059Z,1009.15
2019-01-02T10:04:35.759Z,1008.84
2019-01-02T10:08:17.390Z,1009.22
2019-01-02T10:12:01.832Z,1009.44
2019-01-02T10:16:15.513Z,1010.45
2019-01-02T10:20:27.595Z,1010.42
2019-01-02T10:24:21.137Z,1011.65
2019-01-02T10:28:55.218Z,1012.8
2019-01-02T10:39:08.413Z,1013.24
2019-01-02T10:42:51.104Z,1014.4
2019-01-02T10:49:02.794Z,1015.34
2019-01-02T10:55:05.608Z,1017.48
2019-01-02T11:01:09.991Z,1019.12
2019-01-02T11:06:27.443Z,1021.26
2019-01-02T11:10:08.355Z,1023.82
2019-01-02T11:14:09.250Z,1025.94
2019-01-02T11:18:04.668Z,1025
2019-01-02T11:22:00.629Z,1024.84
2019-01-02T11:29:27.752Z,1023.9
2019-01-02T11:34:44.085Z,1024.23
2019-01-02T11:38:24.716Z,1026.71
2019-01-02T11:42:06.188Z,1024.75
2019-01-02T11:45:36.249Z,1023.43
2019-01-02T11:49:06.291Z,1023.48
2019-01-02T11:52:36.361Z,1023.49
2019-01-02T11:56:07.678Z,1022.06
2019-01-02T11:59:37.706Z,1021.27
2019-01-02T12:00:22.995Z,1020.92
2019-01-02T12:03:53.089Z,1020.11
2019-01-02T12:07:23.098Z,1019.45
2019-01-02T12:12:14.680Z,1019.46
2019-01-02T12:15:44.742Z,1018.72
2019-01-02T12:19:14.825Z,1018.28
2019-01-02T12:22:44.804Z,1018.13
2019-01-02T12:26:14.876Z,1018.38
2019-01-02T12:29:45.107Z,1018.83
2019-01-02T12:33:15.209Z,1018.06
2019-01-02T12:36:45.210Z,1017.68
2019-01-02T12:40:15.251Z,1018.41
2019-01-02T12:43:45.343Z,1017.74
2019-01-02T12:47:15.474Z,1016.46
2019-01-02T12:50:45.505Z,1015.43
2019-01-02T12:54:15.597Z,1015.48
2019-01-02T12:57:45.708Z,1014.82
2019-01-02T13:01:23.551Z,1014.39
2019-01-02T13:05:43.072Z,1013.75
2019-01-02T13:09:21.544Z,1015.09
2019-01-02T13:19:14.036Z,1014.76
2019-01-02T13:23:11.420Z,1014.72
2019-01-02T13:26:49.484Z,1015.27
2019-01-02T13:30:38.411Z,1015.88
2019-01-02T13:36:36.563Z,1017.19
2019-01-02T13:40:52.215Z,1015.56
2019-01-02T13:45:01.318Z,1017.28
2019-01-02T13:49:18.189Z,1016.47
2019-01-02T13:52:48.330Z,1017.31
2019-01-02T13:56:20.622Z,1017.03
2019-01-02T13:59:50.736Z,1016.43
2019-01-02T14:00:22.132Z,1016.89
2019-01-02T14:03:55.394Z,1017.64
2019-01-02T14:07:25.555Z,1017.37
2019-01-02T14:10:55.538Z,1016.96
2019-01-02T14:14:26.497Z,1016.35
2019-01-02T14:17:56.559Z,1015.6
2019-01-02T14:21:26.701Z,1014.99
2019-01-02T14:24:56.862Z,1014.48
2019-01-02T14:28:27.044Z,1013.53
2019-01-02T14:31:57.115Z,1012.99
2019-01-02T14:35:27.227Z,1012.84
2019-01-02T14:38:57.238Z,1012.37
2019-01-02T14:42:27.300Z,1011.94
2019-01-02T14:45:57.531Z,1011.63
2019-01-02T14:49:27.694Z,1011.06
2019-01-02T14:52:57.834Z,1010.32
2019-01-02T14:56:27.885Z,1009.6
2019-01-02T14:59:57.926Z,1009.37
2019-01-02T15:03:27.957Z,1008.71
2019-01-02T15:06:58.010Z,1008.29
2019-01-02T15:10:28.019Z,1007.78
2019-01-02T15:13:58.083Z,1007.64
2019-01-02T15:17:29.053Z,1007.31
2019-01-02T15:20:58.994Z,1006.79
2019-01-02T15:24:29.035Z,1006.49
2019-01-02T15:27:59.187Z,1006.5
2019-01-02T15:31:29.399Z,1006.76
2019-01-02T15:34:59.450Z,1006.86
2019-01-02T15:38:29.520Z,1007.25
2019-01-02T15:41:59.541Z,1006.81
2019-01-02T15:45:29.673Z,1006.64
2019-01-02T15:48:59.764Z,1006.41
2019-01-02T15:52:29.856Z,1006.11
2019-01-02T15:55:59.997Z,1005.75
2019-01-02T15:59:30.018Z,1005.59
2019-01-02T16:00:22.348Z,1005.73
2019-01-02T16:03:52.633Z,1005.3
2019-01-02T16:07:22.644Z,1005.71
2019-01-02T16:10:52.733Z,1006.01
2019-01-02T16:14:22.833Z,1006.15
2019-01-02T16:17:53.864Z,1006.16
2019-01-02T16:21:23.957Z,1006.57
2019-01-02T16:24:53.956Z,1006.47
2019-01-02T16:28:24.079Z,1006.3
2019-01-02T16:31:54.131Z,1005.93
2019-01-02T16:35:24.301Z,1006.08
2019-01-02T16:38:54.279Z,1006.12
2019-01-02T16:42:24.363Z,1005.95
2019-01-02T16:45:54.445Z,1005.49
2019-01-02T16:49:24.543Z,1005.43
2019-01-02T16:52:54.487Z,1005.5
2019-01-02T16:56:24.569Z,1005.38
2019-01-02T16:59:54.619Z,1005.56
2019-01-02T17:03:24.621Z,1005.64
2019-01-02T17:06:54.612Z,1005.94
2019-01-02T17:10:24.624Z,1006.14
2019-01-02T17:13:54.765Z,1006.5
2019-01-02T17:17:24.958Z,1006.64
2019-01-02T17:20:55.957Z,1006.89
2019-01-02T17:24:26.018Z,1007.35
2019-01-02T17:27:55.940Z,1007.21
2019-01-02T17:31:26.081Z,1007.18
2019-01-02T17:34:56.072Z,1007.21
2019-01-02T17:38:26.104Z,1007.16
2019-01-02T17:41:56.105Z,1006.94
2019-01-02T17:45:26.236Z,1006.68
2019-01-02T17:48:56.347Z,1006.89
2019-01-02T17:52:26.358Z,1006.95
2019-01-02T17:55:56.349Z,1007.24
2019-01-02T17:59:26.411Z,1007.37
2019-01-02T18:00:22.443Z,1007.47
2019-01-02T18:03:52.433Z,1007.54
2019-01-02T18:07:22.524Z,1007.45
2019-01-02T18:10:52.686Z,1007.56
2019-01-02T18:14:22.801Z,1007.69
2019-01-02T18:17:52.749Z,1007.51
2019-01-02T18:21:23.020Z,1007.45
2019-01-02T18:24:53.241Z,1006.95
2019-01-02T18:28:23.405Z,1006.17
2019-01-02T18:31:53.594Z,1005.73
2019-01-02T18:35:23.645Z,1005.72
2019-01-02T18:38:53.723Z,1005.68
2019-01-02T18:42:24.018Z,1005.31
2019-01-02T18:45:54.129Z,1005.05
2019-01-02T18:49:24.261Z,1004.85
2019-01-02T18:52:54.343Z,1004.91
2019-01-02T18:56:24.383Z,1004.72
2019-01-02T18:59:54.544Z,1004.86
2019-01-02T19:03:24.599Z,1004.85
2019-01-02T19:06:54.617Z,1005
2019-01-02T19:10:24.786Z,1005.08
2019-01-02T19:13:54.760Z,1005.69
2019-01-02T19:17:24.871Z,1005.79
2019-01-02T19:20:54.962Z,1006.07
2019-01-02T19:24:26.114Z,1005.98
2019-01-02T19:27:56.225Z,1006.38
2019-01-02T19:31:26.330Z,1006.68
2019-01-02T19:34:56.427Z,1006.47
2019-01-02T19:38:26.496Z,1006.73
2019-01-02T19:41:56.460Z,1007.03
2019-01-02T19:45:26.591Z,1006.44
2019-01-02T19:48:56.614Z,1006.46
2019-01-02T19:52:26.974Z,1006.25
2019-01-02T19:55:57.015Z,1006.34
2019-01-02T19:59:27.126Z,1006.27
2019-01-02T20:00:22.616Z,1006.54
2019-01-02T20:03:52.727Z,1006.71
2019-01-02T20:07:22.821Z,1006.85
2019-01-02T20:10:52.810Z,1006.68
2019-01-02T20:14:22.862Z,1006.61
2019-01-02T20:17:52.953Z,1006.69
2019-01-02T20:21:23.116Z,1006.26
2019-01-02T20:24:54.055Z,1006.32
2019-01-02T20:28:24.147Z,1006.52
2019-01-02T20:31:54.148Z,1006.82
2019-01-02T20:35:24.259Z,1006.99
2019-01-02T20:38:54.249Z,1006.81
2019-01-02T20:42:24.301Z,1006.76
2019-01-02T20:45:54.453Z,1006.84
2019-01-02T20:49:24.524Z,1006.88
2019-01-02T20:52:54.515Z,1006.4
2019-01-02T20:56:24.567Z,1006.46
2019-01-02T20:59:54.729Z,1006.32
2019-01-02T21:03:24.836Z,1006.43
2019-01-02T21:06:54.822Z,1006.33
2019-01-02T21:10:24.874Z,1006.38
2019-01-02T21:13:54.864Z,1006.41
2019-01-02T21:17:25.016Z,1005.95
2019-01-02T21:20:55.026Z,1006.14
2019-01-02T21:24:25.117Z,1005.86
2019-01-02T21:27:56.021Z,1006.12
2019-01-02T21:31:26.103Z,1005.97
2019-01-02T21:34:56.161Z,1006
2019-01-02T21:38:26.352Z,1006.11
2019-01-02T21:41:56.453Z,1006.26
2019-01-02T21:45:26.515Z,1006.4
2019-01-02T21:48:56.536Z,1006.38
2019-01-02T21:52:26.689Z,1006.22
2019-01-02T21:55:56.719Z,1006.38
2019-01-02T21:59:26.750Z,1006.28
2019-01-02T22:00:23.201Z,1006.38
2019-01-02T22:03:53.271Z,1006.75
2019-01-02T22:07:23.392Z,1006.36
2019-01-02T22:10:53.524Z,1006.68
2019-01-02T22:14:23.565Z,1006.69
2019-01-02T22:17:53.607Z,1006.67
2019-01-02T22:21:23.758Z,1006.53
2019-01-02T22:24:53.809Z,1006.78
2019-01-02T22:28:24.937Z,1006.6
2019-01-02T22:31:54.991Z,1006.64
2019-01-02T22:35:25.163Z,1006.44
2019-01-02T22:38:55.285Z,1006.17
2019-01-02T22:42:25.466Z,1006.34
2019-01-02T22:45:55.657Z,1006.61
2019-01-02T22:49:25.698Z,1006.49
2019-01-02T22:52:55.660Z,1006.54
2019-01-02T22:56:25.751Z,1006.54
2019-01-02T22:59:55.772Z,1006.48
2019-01-02T23:03:37.207Z,1006.43
2019-01-02T23:08:24.795Z,1006.37
2019-01-02T23:12:27.047Z,1005.76
2019-01-02T23:17:15.759Z,1006.01
2019-01-02T23:27:20.193Z,1005.08
2019-01-02T23:31:06.954Z,1005.34
2019-01-02T23:36:39.716Z,1005.14
2019-01-02T23:40:48.427Z,1005.32
2019-01-02T23:47:06.050Z,1004.82
2019-01-02T23:53:10.632Z,1004.64
2019-01-02T23:56:58.333Z,1004.49
